Αναφορές METAR από Ελληνικά Αεροδρόμια

Σε αυτή τη σελίδα, μπορείτε να παρακολουθείτε τις αναφορές METAR που προέρχονται από τα κυριότερα αεροδρόμια της Ελλάδας. Το περιεχόμενο αποκωδικοποιείται, οπτικοποιείται και γίνεται κατανοητό από τον καθένα με τη χρήση του όμορφου δίγλωσσου γραφικού περιβάλλοντος του meteothes.gr!

Η αρχική κωδικοποιημένη αναφορά, συμπεριλαμβάνεται επίσης στο κάτω μέρος. Σε όποια καθεστερεί η ενημέρωση, το προειδοποιητικό μήνυμα "Μη ενημερωμένο METAR!" εμφανίζεται στο πάνω μέρος της με κόκκινα γράμματα.

Εχουν προστεθεί επίσης δύο αεροδρόμια από γειτονικές χώρες, την Οχρίδα(ΠΓΔΜ) και την Σόφια(Βουλγαρία) για να ελέγχουμε την εξέλιξη των ψυχρών εισβολών από τα Βόρεια!

LGTS - Thessaloniki/Makedonia-Elev 7m
Απόσταση από meteothes.gr: Ν 13km
Ενημερώθηκε: 04/08/2020 18:50
Διάσπαρτα Nέφη
Διάσπαρτα Nέφη
 Ανεμος από Ν
Ανεμος: Ν 22 km/h
Θερμοκρασία: 29°C
Δείκτη Δυσφορίας: 31°C
Σημ. Δρόσου: 20°C
Υγρασία: 58%
Βαρόμετρο: 1008 hPa
Νέφωση: Διάσπαρτα Nέφη
Ορατότητα: 10 km
Λεπτομέρειες Νεφών: Διάσπαρτα Nέφη 762 m
2020/08/04 15:50 LGTS 041550Z 17012KT 9999 FEW025 29/20 Q1008 NOSIG
LGAV - Athens/Elef. Venizelos-Elev 94m
Απόσταση από meteothes.gr: ΝΝΑ 312km
Ενημερώθηκε: 04/08/2020 19:20
Αίθριος
Αίθριος
 Ανεμος από ΒΒΑ
Ανεμος: ΒΒΑ 15 km/h
Θερμοκρασία: 29°C
Σημ. Δρόσου: 13°C
Υγρασία: 37%
Βαρόμετρο: 1008 hPa
Συνθήκες: Αίθριος
Ορατότητα: πάνω από 10 km
2020/08/04 16:20 LGAV 041620Z 02008KT CAVOK 29/13 Q1008 NOSIG
 
LGAL - Alexandroupolis-Elev 3m
Απόσταση από meteothes.gr: Α 251km
Ενημερώθηκε: 04/08/2020 18:50
Αίθριος
Αίθριος
 Ανεμος από ΔΝΔ
Ανεμος: ΔΝΔ 15 km/h
Θερμοκρασία: 30°C
Δείκτη Δυσφορίας: 31°C
Σημ. Δρόσου: 17°C
Υγρασία: 46%
Βαρόμετρο: 1008 hPa
Συνθήκες: Αίθριος
Ορατότητα: πάνω από 10 km
2020/08/04 15:50 LGAL 041550Z 24008KT CAVOK 30/17 Q1008
LGKV - Kavala/Crysoupolis-Elev 5m
Απόσταση από meteothes.gr: ΑΒΑ 144km
Ενημερώθηκε: 04/08/2020 18:50
Διάσπαρτα Nέφη
Διάσπαρτα Nέφη
 Ανεμος από ΔΝΔ
Ανεμος: ΔΝΔ 15 km/h
Θερμοκρασία: 27°C
Δείκτη Δυσφορίας: 28°C
Σημ. Δρόσου: 18°C
Υγρασία: 58%
Βαρόμετρο: 1008 hPa
Νέφωση: Διάσπαρτα Nέφη
Ορατότητα: 10 km
Λεπτομέρειες Νεφών: Διάσπαρτα Nέφη 914 m
2020/08/04 15:50 LGKV 041550Z 24008KT 9999 FEW030 27/18 Q1008
 
LGSK - Skiathos Island-Elev 15m
Απόσταση από meteothes.gr: ΝΝΑ 168km
Ενημερώθηκε: 04/08/2020 18:50
Αίθριος
Αίθριος
 Ανεμος από μεταβλητός
Ανεμος: μεταβλητός 4 km/h
Θερμοκρασία: 26°C
Σημ. Δρόσου: 21°C
Υγρασία: 74%
Βαρόμετρο: 1007 hPa
Συνθήκες: Αίθριος
Ορατότητα: πάνω από 10 km
2020/08/04 15:50 LGSK 041550Z VRB02KT CAVOK 26/21 Q1007
LGLM - Limnos Island-Elev 5m
Απόσταση από meteothes.gr: ΑΝΑ 210km
Ενημερώθηκε: 04/08/2020 18:20
Αίθριος
Αίθριος
 Ανεμος από Β
Ανεμος: Β 11 km/h
Θερμοκρασία: 29°C
Δείκτη Δυσφορίας: 29°C
Σημ. Δρόσου: 15°C
Υγρασία: 43%
Βαρόμετρο: 1008 hPa
Συνθήκες: Αίθριος
Ορατότητα: πάνω από 10 km
2020/08/04 15:20 LGLM 041520Z 35006KT CAVOK 29/15 Q1008
 
LGMT - Mitilini Island-Elev 17m
Απόσταση από meteothes.gr: ΑΝΑ 358km
Ενημερώθηκε: 04/08/2020 18:50
Αίθριος
Αίθριος
 Ανεμος από ΒΔ
Ανεμος: ΒΔ 13 km/h
Θερμοκρασία: 32°C
Δείκτη Δυσφορίας: 34°C
Σημ. Δρόσου: 19°C
Υγρασία: 46%
Βαρόμετρο: 1006 hPa
Συνθήκες: Αίθριος
Ορατότητα: πάνω από 10 km
2020/08/04 15:50 LGMT 041550Z 32007KT CAVOK 32/19 Q1006
LGSY - Skiros Island-Elev 15m
Απόσταση από meteothes.gr: ΝΑ 227km
Ενημερώθηκε: 04/08/2020 18:50
Αίθριος
Αίθριος
 Ανεμος από Β
Ανεμος: Β 7 km/h
Θερμοκρασία: 25°C
Σημ. Δρόσου: 18°C
Υγρασία: 65%
Βαρόμετρο: 1008 hPa
Συνθήκες: Αίθριος
Ορατότητα: πάνω από 10 km
2020/08/04 15:50 LGSY 041550Z 36004KT CAVOK 25/18 Q1008 BLU
 
LGKZ - Kozani-Elev 628m
Απόσταση από meteothes.gr: ΔΝΔ 102km
Ενημερώθηκε: 04/08/2020 18:50

 Ανεμος από ΝΝΑ
Ανεμος: ΝΝΑ 15 km/h
Θερμοκρασία: 30°C
Σημ. Δρόσου: 12°C
Υγρασία: 33%
Βαρόμετρο: 1010 hPa
2020/08/04 15:50 LGKZ 041550Z AUTO 15008KT 110V170 //// // ////// 30/12 Q1010 RE//
LGIO - Ioannina-Elev 476m
Απόσταση από meteothes.gr: ΔΝΔ 209km
Ενημερώθηκε: 04/08/2020 18:50
Διάσπαρτα Nέφη
Διάσπαρτα Nέφη
 Ανεμος από Β
Ανεμος: Β 15 km/h
Θερμοκρασία: 29°C
Δείκτη Δυσφορίας: 29°C
Σημ. Δρόσου: 18°C
Υγρασία: 51%
Βαρόμετρο: 1010 hPa
Νέφωση: Διάσπαρτα Nέφη
Ορατότητα: 10 km
Λεπτομέρειες Νεφών: Διάσπαρτα Nέφη 914 m
2020/08/04 15:50 LGIO 041550Z 36008KT 9999 FEW030 29/18 Q1010
 
LGZA - Zakinthos-Elev 3m
Απόσταση από meteothes.gr: ΝΝΔ 367km
Ενημερώθηκε: 04/08/2020 18:50
Διάσπαρτα Nέφη
Διάσπαρτα Nέφη
 Ανεμος από Ν
Ανεμος: Ν 11 km/h
Θερμοκρασία: 30°C
Δείκτη Δυσφορίας: 32°C
Σημ. Δρόσου: 20°C
Υγρασία: 55%
Βαρόμετρο: 1008 hPa
Νέφωση: Διάσπαρτα Nέφη
Ορατότητα: 10 km
Λεπτομέρειες Νεφών: Διάσπαρτα Nέφη 610 m
2020/08/04 15:50 LGZA 041550Z 18006KT 9999 FEW020 30/20 Q1008
LGKR - Corfu Island-Elev 2m
Απόσταση από meteothes.gr: ΔΝΔ 282km
Ενημερώθηκε: 04/08/2020 19:20
Διάσπαρτα Nέφη
Διάσπαρτα Nέφη
 Ανεμος από ΝΝΑ
Ανεμος: ΝΝΑ 9 km/h
Θερμοκρασία: 29°C
Δείκτη Δυσφορίας: 32°C
Σημ. Δρόσου: 23°C
Υγρασία: 70%
Βαρόμετρο: 1008 hPa
Νέφωση: Διάσπαρτα Nέφη
Ορατότητα: 10 km
Λεπτομέρειες Νεφών: Διάσπαρτα Nέφη 610 m
2020/08/04 16:20 LGKR 041620Z 15005KT 9999 FEW020 29/23 Q1008 NOSIG
 
LGSO - Syros Island-Elev 72m
Απόσταση από meteothes.gr: ΝΝΑ 397km
Ενημερώθηκε: 04/08/2020 18:50
Αίθριος
Αίθριος
 Ανεμος από Β
Ανεμος: Β 19 km/h
Θερμοκρασία: 28°C
Δείκτη Δυσφορίας: 28°C
Σημ. Δρόσου: 16°C
Υγρασία: 48%
Βαρόμετρο: 1008 hPa
Συνθήκες: Αίθριος
Ορατότητα: πάνω από 10 km
2020/08/04 15:50 LGSO 041550Z 01010KT CAVOK 28/16 Q1008
LGMK - Mikonos Island-Elev 123m
Απόσταση από meteothes.gr: ΝΝΑ 412km
Ενημερώθηκε: 04/08/2020 18:50
Αίθριος
Αίθριος
 Ανεμος από Β
Ανεμος: Β 26 km/h
Θερμοκρασία: 29°C
Δείκτη Δυσφορίας: 29°C
Σημ. Δρόσου: 16°C
Υγρασία: 45%
Βαρόμετρο: 1007 hPa
Συνθήκες: Αίθριος
Ορατότητα: πάνω από 10 km
2020/08/04 15:50 LGMK 041550Z 01014KT CAVOK 29/16 Q1007
 
LGSR - Santorini Island-Elev 40m
Απόσταση από meteothes.gr: ΝΝΑ 520km
Ενημερώθηκε: 04/08/2020 18:50
Αίθριος
Αίθριος
 Ανεμος από ΔΒΔ
Ανεμος: ΔΒΔ 28 km/h
Θερμοκρασία: 30°C
Δείκτη Δυσφορίας: 30°C
Σημ. Δρόσου: 16°C
Υγρασία: 43%
Βαρόμετρο: 1007 hPa
Συνθήκες: Αίθριος
Ορατότητα: πάνω από 10 km
2020/08/04 15:50 LGSR 041550Z 30015KT CAVOK 30/16 Q1007
LGKL - Kalamata-Elev 8m
Απόσταση από meteothes.gr: Ν 405km
Ενημερώθηκε: 04/08/2020 18:50
Διάσπαρτα Nέφη
Διάσπαρτα Nέφη
 Ανεμος από ΑΝΑ
Ανεμος: ΑΝΑ 9 km/h
Θερμοκρασία: 32°C
Δείκτη Δυσφορίας: 33°C
Σημ. Δρόσου: 18°C
Υγρασία: 43%
Βαρόμετρο: 1008 hPa
Νέφωση: Διάσπαρτα Nέφη
Ορατότητα: 10 km
Λεπτομέρειες Νεφών: Διάσπαρτα Nέφη 914 m
2020/08/04 15:50 LGKL 041550Z 12005KT 9999 FEW030 32/18 Q1008
 
LGIR - Iraklion/Crete-Elev 5m
Απόσταση από meteothes.gr: ΝΝΑ 622km
Ενημερώθηκε: 04/08/2020 19:20
Αίθριος
Αίθριος
 Ανεμος από ΒΔ
Ανεμος: ΒΔ 17 km/h
Θερμοκρασία: 28°C
Δείκτη Δυσφορίας: 29°C
Σημ. Δρόσου: 19°C
Υγρασία: 58%
Βαρόμετρο: 1008 hPa
Συνθήκες: Αίθριος
Ορατότητα: πάνω από 10 km
2020/08/04 16:20 LGIR 041620Z 31009KT CAVOK 28/19 Q1008 NOSIG
LGRP - Rhodes-Elev 5m
Απόσταση από meteothes.gr: ΝΑ 649km
Ενημερώθηκε: 04/08/2020 19:20
Αίθριος
Αίθριος
 Ανεμος από ΔΝΔ
Ανεμος: ΔΝΔ 28 km/h
Θερμοκρασία: 28°C
Δείκτη Δυσφορίας: 30°C
Σημ. Δρόσου: 21°C
Υγρασία: 66%
Βαρόμετρο: 1003 hPa
Συνθήκες: Αίθριος
Ορατότητα: πάνω από 10 km
2020/08/04 16:20 LGRP 041620Z 24015KT CAVOK 28/21 Q1003 NOSIG
 
LWOH - Ohrid/FYROM-Elev 761m
Απόσταση από meteothes.gr: ΔΒΔ 188km
Ενημερώθηκε: 04/08/2020 19:00
Μερικώς νεφελώδης
Μερικώς νεφελώδης
 Ανεμος από ΑΝΑ
Ανεμος: ΑΝΑ 7 km/h
Θερμοκρασία: 28°C
Δείκτη Δυσφορίας: 28°C
Σημ. Δρόσου: 15°C
Υγρασία: 45%
Βαρόμετρο: 1010 hPa
Νέφωση: Μερικώς νεφελώδης
Ορατότητα: 10 km
Λεπτομέρειες Νεφών: Μερικώς νεφελώδης 1219 m
2020/08/04 16:00 LWOH 041600Z 12004KT 9999 SCT040TCU 28/15 Q1010
LBSF - Sofia/Bulgaria-Elev 595m
Απόσταση από meteothes.gr: Β 227km
Ενημερώθηκε: 04/08/2020 19:00
Διάσπαρτα Nέφη
Διάσπαρτα Nέφη
 Ανεμος από ΝΝΑ
Ανεμος: ΝΝΑ 17 km/h
Θερμοκρασία: 30°C
Δείκτη Δυσφορίας: 29°C
Σημ. Δρόσου: 15°C
Υγρασία: 40%
Βαρόμετρο: 1010 hPa
Νέφωση: Διάσπαρτα Nέφη
Ορατότητα: 10 km
Λεπτομέρειες Νεφών: Διάσπαρτα Nέφη 1676 m
2020/08/04 16:00 LBSF 041600Z 15009KT 9999 FEW055 30/15 Q1010 NOSIG

(*) Μερικές αναφορές παρουσιάζουν λιγότερα στοιχεία γιατί οι αρχικές είναι ελλιπείς ή έχουν λάθος μορφοποίηση!